createdAt,value
2023-08-15T00:03:38.143Z,7.68
2023-08-15T00:07:39.688Z,6.68
2023-08-15T00:11:41.202Z,6.68
2023-08-15T00:15:43.004Z,6.28
2023-08-15T00:19:45.884Z,7.53
2023-08-15T00:23:47.473Z,5.15
2023-08-15T00:27:49.008Z,8.43
2023-08-15T00:31:50.642Z,5.88
2023-08-15T00:35:53.589Z,3.03
2023-08-15T00:39:55.288Z,7.95
2023-08-15T00:43:56.956Z,5.50
2023-08-15T00:47:58.722Z,6.15
2023-08-15T00:52:02.309Z,6.88
2023-08-15T00:56:04.425Z,5.90
2023-08-15T01:00:07.462Z,4.50
2023-08-15T01:04:09.497Z,7.25
2023-08-15T01:08:12.376Z,6.68
2023-08-15T01:12:25.454Z,8.88
2023-08-15T01:16:32.584Z,8.68
2023-08-15T01:20:36.788Z,9.10
2023-08-15T01:24:39.897Z,7.53
2023-08-15T01:28:41.587Z,9.40
2023-08-15T01:32:49.776Z,10.32
2023-08-15T01:36:55.097Z,8.48
2023-08-15T01:41:02.234Z,7.78
2023-08-15T01:45:04.582Z,8.57
2023-08-15T01:49:06.195Z,7.38
2023-08-15T01:53:07.790Z,6.63
2023-08-15T01:57:10.699Z,7.72
2023-08-15T02:01:12.270Z,8.20
2023-08-15T02:05:13.942Z,7.68
2023-08-15T02:09:15.523Z,8.07
2023-08-15T02:13:18.910Z,7.20
2023-08-15T02:17:20.599Z,7.05
2023-08-15T02:21:22.400Z,9.27
2023-08-15T02:25:23.991Z,5.03
2023-08-15T02:29:26.888Z,9.13
2023-08-15T02:33:28.442Z,7.50
2023-08-15T02:37:29.978Z,9.25
2023-08-15T02:41:31.527Z,7.03
2023-08-15T02:45:34.427Z,8.50
2023-08-15T02:49:35.970Z,9.23
2023-08-15T02:53:37.529Z,7.50
2023-08-15T02:57:39.090Z,10.57
2023-08-15T03:01:41.978Z,9.43
2023-08-15T03:05:43.528Z,8.55
2023-08-15T03:09:45.088Z,8.60
2023-08-15T03:13:46.625Z,11.18
2023-08-15T03:17:49.562Z,11.23
2023-08-15T03:21:51.243Z,7.85
2023-08-15T03:25:56.868Z,9.15
2023-08-15T03:29:58.484Z,10.32
2023-08-15T03:34:01.406Z,9.45
2023-08-15T03:38:03.014Z,9.02
2023-08-15T03:42:05.264Z,9.00
2023-08-15T03:46:07.220Z,9.15
2023-08-15T03:50:10.372Z,8.88
2023-08-15T03:54:11.932Z,9.75
2023-08-15T03:58:13.478Z,11.13
2023-08-15T04:02:15.043Z,11.35
2023-08-15T04:06:17.924Z,10.15
2023-08-15T04:10:19.555Z,10.48
2023-08-15T04:14:21.125Z,12.88
2023-08-15T04:18:22.664Z,8.13
2023-08-15T04:22:25.570Z,11.18
2023-08-15T04:26:27.132Z,11.73
2023-08-15T04:30:29.570Z,14.80
2023-08-15T04:34:31.264Z,12.23
2023-08-15T04:38:34.176Z,10.32
2023-08-15T04:42:35.714Z,11.90
2023-08-15T04:46:37.386Z,10.02
2023-08-15T04:50:38.946Z,10.32
2023-08-15T04:54:41.837Z,11.35
2023-08-15T04:58:43.377Z,11.82
2023-08-15T05:02:45.007Z,11.02
2023-08-15T05:06:46.566Z,12.77
2023-08-15T05:10:49.536Z,10.18
2023-08-15T05:14:51.117Z,13.68
2023-08-15T05:18:52.660Z,11.27
2023-08-15T05:22:54.428Z,13.68
2023-08-15T05:26:57.348Z,10.13
2023-08-15T05:30:59.020Z,13.13
2023-08-15T05:35:00.583Z,11.70
2023-08-15T05:39:02.121Z,10.85
2023-08-15T05:43:05.084Z,12.85
2023-08-15T05:47:06.703Z,12.75
2023-08-15T05:51:08.317Z,10.70
2023-08-15T05:55:09.852Z,13.48
2023-08-15T05:59:12.748Z,10.65
2023-08-15T06:03:14.397Z,10.43
2023-08-15T06:07:16.026Z,11.63
2023-08-15T06:11:17.568Z,10.88
2023-08-15T06:15:20.481Z,8.45
2023-08-15T06:19:22.020Z,11.07
2023-08-15T06:23:23.644Z,10.95
2023-08-15T06:27:25.205Z,8.85
2023-08-15T06:31:28.539Z,9.50
2023-08-15T06:35:30.125Z,10.20
2023-08-15T06:39:31.674Z,11.43
2023-08-15T06:43:33.342Z,9.77
2023-08-15T06:47:36.280Z,8.57
2023-08-15T06:51:37.863Z,11.63
2023-08-15T06:55:39.409Z,9.98
2023-08-15T06:59:40.978Z,14.25
2023-08-15T07:03:44.067Z,7.88
2023-08-15T07:07:45.686Z,12.18
2023-08-15T07:11:47.392Z,10.10
2023-08-15T07:15:54.130Z,9.45
2023-08-15T07:19:57.136Z,9.18
2023-08-15T07:23:58.731Z,8.73
2023-08-15T07:28:00.303Z,10.15
2023-08-15T07:32:06.695Z,9.13
2023-08-15T07:36:10.114Z,9.48
2023-08-15T07:40:20.000Z,7.50
2023-08-15T07:44:21.541Z,8.40
2023-08-15T07:52:26.650Z,7.38
2023-08-15T07:56:28.523Z,9.35
2023-08-15T08:00:30.912Z,8.82
2023-08-15T08:04:32.486Z,6.55
2023-08-15T08:08:37.944Z,8.98
2023-08-15T08:12:39.778Z,16.15
2023-08-15T08:16:41.399Z,8.95
2023-08-15T08:20:42.957Z,8.93
2023-08-15T08:24:46.028Z,9.32
2023-08-15T08:28:47.594Z,9.05
2023-08-15T08:32:49.753Z,8.13
2023-08-15T08:36:51.361Z,8.10
2023-08-15T08:40:56.174Z,6.32
2023-08-15T08:49:01.792Z,9.00
2023-08-15T08:53:03.601Z,7.97
2023-08-15T08:57:07.476Z,9.05
2023-08-15T09:01:10.828Z,7.80
2023-08-15T09:05:12.843Z,8.75
2023-08-15T09:09:14.478Z,7.32
2023-08-15T09:13:23.605Z,7.47
2023-08-15T09:17:25.321Z,7.65
2023-08-15T09:21:27.855Z,7.13
2023-08-15T09:25:29.698Z,9.25
2023-08-15T09:29:34.724Z,6.63
2023-08-15T09:33:36.632Z,8.43
2023-08-15T09:37:41.734Z,7.85
2023-08-15T09:41:43.669Z,8.75
2023-08-15T09:45:47.574Z,6.95
2023-08-15T09:49:52.098Z,7.72
2023-08-15T09:53:54.659Z,8.27
2023-08-15T09:57:56.275Z,9.50
2023-08-15T10:02:01.553Z,7.75
2023-08-15T10:06:04.501Z,9.32
2023-08-15T10:10:07.326Z,9.85
2023-08-15T10:14:10.533Z,9.55
2023-08-15T10:18:14.258Z,5.35
2023-08-15T10:22:18.872Z,7.03
2023-08-15T10:26:20.844Z,6.80
2023-08-15T10:30:29.582Z,6.03
2023-08-15T10:34:34.819Z,6.03
2023-08-15T10:38:40.621Z,6.18
2023-08-15T10:43:07.987Z,9.13
2023-08-15T10:47:23.907Z,9.07
2023-08-15T10:51:28.393Z,6.88
2023-08-15T10:59:32.833Z,9.52
2023-08-15T11:03:35.539Z,9.85
2023-08-15T11:07:38.638Z,8.63
2023-08-15T11:11:40.584Z,8.48
2023-08-15T11:15:42.709Z,7.90
2023-08-15T11:19:44.808Z,8.07
2023-08-15T11:23:50.226Z,10.75
2023-08-15T11:27:52.224Z,5.57
2023-08-15T11:31:53.947Z,8.32
2023-08-15T11:35:55.868Z,7.85
2023-08-15T11:39:58.823Z,7.97
2023-08-15T11:44:01.903Z,8.30
2023-08-15T11:48:05.330Z,10.63
2023-08-15T11:52:07.005Z,7.85
2023-08-15T11:56:10.006Z,8.20
2023-08-15T12:00:12.601Z,7.47
2023-08-15T12:04:14.595Z,8.45
2023-08-15T12:08:16.974Z,7.03
2023-08-15T12:12:21.641Z,7.95
2023-08-15T12:16:23.562Z,6.53
2023-08-15T12:20:25.104Z,7.50
2023-08-15T12:24:26.658Z,8.25
2023-08-15T12:28:29.657Z,7.20
2023-08-15T12:32:31.574Z,6.88
2023-08-15T12:36:33.141Z,8.02
2023-08-15T12:40:34.765Z,8.05
2023-08-15T12:44:37.664Z,4.45
2023-08-15T12:48:39.360Z,8.00
2023-08-15T12:52:40.918Z,7.05
2023-08-15T12:56:42.450Z,8.95
2023-08-15T13:00:46.112Z,6.47
2023-08-15T13:04:47.693Z,5.97
2023-08-15T13:08:49.254Z,8.57
2023-08-15T13:12:50.805Z,7.38
2023-08-15T13:16:54.746Z,13.70
2023-08-15T13:20:56.570Z,6.57
2023-08-15T13:24:58.142Z,6.10
2023-08-15T13:28:59.710Z,6.85
2023-08-15T13:33:02.659Z,8.95
2023-08-15T13:37:04.361Z,9.18
2023-08-15T13:41:06.174Z,7.22
2023-08-15T13:45:09.458Z,8.10
2023-08-15T13:49:12.864Z,11.23
2023-08-15T13:53:14.410Z,10.63
2023-08-15T13:57:16.002Z,12.70
2023-08-15T14:01:17.790Z,7.82
2023-08-15T14:05:21.014Z,8.20
2023-08-15T14:09:22.600Z,11.48
2023-08-15T14:13:24.308Z,10.10
2023-08-15T14:17:25.855Z,10.60
2023-08-15T14:21:28.751Z,8.45
2023-08-15T14:25:30.457Z,7.97
2023-08-15T14:29:32.021Z,9.30
2023-08-15T14:33:33.708Z,8.57
2023-08-15T14:37:36.646Z,7.40
2023-08-15T14:41:38.193Z,9.48
2023-08-15T14:45:39.757Z,10.05
2023-08-15T14:49:41.316Z,9.55
2023-08-15T14:53:44.292Z,11.73
2023-08-15T14:57:45.866Z,10.32
2023-08-15T15:01:47.502Z,10.65
2023-08-15T15:05:49.108Z,10.68
2023-08-15T15:09:52.205Z,11.73
2023-08-15T15:13:53.778Z,8.50
2023-08-15T15:17:55.363Z,12.30
2023-08-15T15:21:56.987Z,12.70
2023-08-15T15:26:00.233Z,12.82
2023-08-15T15:30:01.927Z,13.80
2023-08-15T15:34:03.784Z,12.10
2023-08-15T15:38:05.372Z,14.75
2023-08-15T15:42:08.507Z,13.95
2023-08-15T15:46:10.189Z,11.80
2023-08-15T15:50:11.928Z,11.63
2023-08-15T15:54:13.486Z,13.45
2023-08-15T15:58:16.365Z,11.68
2023-08-15T16:02:17.938Z,14.13
2023-08-15T16:06:19.496Z,11.82
2023-08-15T16:10:21.121Z,14.77
2023-08-15T16:14:24.057Z,13.80
2023-08-15T16:18:25.877Z,13.25
2023-08-15T16:22:27.897Z,13.25
2023-08-15T16:26:29.444Z,13.18
2023-08-15T16:30:32.416Z,22.73
2023-08-15T16:34:34.398Z,23.85
2023-08-15T16:38:36.040Z,19.17
2023-08-15T16:42:37.604Z,19.55
2023-08-15T16:46:40.544Z,23.17
2023-08-15T16:50:42.248Z,17.80
2023-08-15T16:54:43.884Z,16.90
2023-08-15T16:58:45.466Z,18.00
2023-08-15T17:02:48.601Z,14.68
2023-08-15T17:06:50.420Z,20.23
2023-08-15T17:10:51.992Z,21.38
2023-08-15T17:14:53.509Z,16.17
2023-08-15T17:18:56.400Z,15.18
2023-08-15T17:22:58.056Z,12.52
2023-08-15T17:26:59.937Z,14.65
2023-08-15T17:31:01.506Z,15.60
2023-08-15T17:35:04.990Z,14.27
2023-08-15T17:39:06.535Z,13.57
2023-08-15T17:43:08.190Z,14.55
2023-08-15T17:47:10.049Z,14.15
2023-08-15T17:51:13.065Z,13.07
2023-08-15T17:55:14.801Z,14.23
2023-08-15T17:59:16.372Z,11.93
2023-08-15T18:03:18.025Z,12.07
2023-08-15T18:07:21.015Z,13.48
2023-08-15T18:11:22.644Z,15.43
2023-08-15T18:15:24.340Z,12.55
2023-08-15T18:19:25.892Z,16.73
2023-08-15T18:23:28.954Z,15.65
2023-08-15T18:27:30.528Z,13.07
2023-08-15T18:31:32.239Z,10.05
2023-08-15T18:35:33.854Z,15.50
2023-08-15T18:39:36.843Z,18.23
2023-08-15T18:43:38.376Z,13.35
2023-08-15T18:47:40.046Z,11.25
2023-08-15T18:51:41.673Z,12.43
2023-08-15T18:55:44.953Z,11.05
2023-08-15T18:59:46.563Z,13.30
2023-08-15T19:03:48.198Z,14.68
2023-08-15T19:07:49.828Z,16.42
2023-08-15T19:11:52.751Z,15.07
2023-08-15T19:15:54.300Z,19.67
2023-08-15T19:19:56.527Z,17.00
2023-08-15T19:23:58.097Z,18.13
2023-08-15T19:28:01.143Z,15.48
2023-08-15T19:32:02.739Z,16.08
2023-08-15T19:36:04.771Z,16.73
2023-08-15T19:40:07.910Z,17.85
2023-08-15T19:44:11.175Z,15.90
2023-08-15T19:48:12.863Z,13.48
2023-08-15T19:52:14.461Z,17.95
2023-08-15T19:56:16.289Z,14.25
2023-08-15T20:00:19.348Z,14.07
2023-08-15T20:04:21.022Z,16.50
2023-08-15T20:08:22.715Z,14.13
2023-08-15T20:12:24.622Z,14.98
2023-08-15T20:16:27.809Z,12.80
2023-08-15T20:20:29.416Z,13.27
2023-08-15T20:24:31.008Z,14.05
2023-08-15T20:28:32.613Z,15.13
2023-08-15T20:32:35.577Z,11.70
2023-08-15T20:36:37.999Z,15.10
2023-08-15T20:40:39.592Z,14.80
2023-08-15T20:44:41.189Z,15.50
2023-08-15T20:48:44.074Z,10.63
2023-08-15T20:52:45.618Z,12.57
2023-08-15T20:56:47.251Z,14.07
2023-08-15T21:00:48.866Z,13.80
2023-08-15T21:04:51.822Z,15.57
2023-08-15T21:08:53.366Z,16.52
2023-08-15T21:12:54.908Z,15.68
2023-08-15T21:16:56.541Z,15.90
2023-08-15T21:20:59.440Z,15.63
2023-08-15T21:25:01.016Z,20.92
2023-08-15T21:29:02.753Z,14.80
2023-08-15T21:33:04.734Z,17.25
2023-08-15T21:37:08.183Z,14.27
2023-08-15T21:41:11.953Z,15.95
2023-08-15T21:45:13.532Z,18.70
2023-08-15T21:49:15.099Z,15.70
2023-08-15T21:53:18.090Z,23.73
2023-08-15T21:57:19.849Z,21.13
2023-08-15T22:01:21.596Z,16.52
2023-08-15T22:05:23.640Z,16.42
2023-08-15T22:09:26.550Z,12.75
2023-08-15T22:13:28.134Z,13.77
2023-08-15T22:17:43.150Z,15.75
2023-08-15T22:21:47.487Z,17.17
2023-08-15T22:25:50.629Z,18.20
2023-08-15T22:29:52.199Z,12.57
2023-08-15T22:33:53.808Z,16.55
2023-08-15T22:37:55.406Z,15.63
2023-08-15T22:41:58.298Z,18.02
2023-08-15T22:45:59.885Z,18.92
2023-08-15T22:50:01.434Z,19.52
2023-08-15T22:54:03.114Z,16.15
2023-08-15T22:58:06.169Z,21.55
2023-08-15T23:02:07.710Z,18.48
2023-08-15T23:06:09.285Z,26.13
2023-08-15T23:10:11.083Z,20.42
2023-08-15T23:14:14.035Z,22.15
2023-08-15T23:18:15.589Z,24.90
2023-08-15T23:22:17.172Z,20.77
2023-08-15T23:26:18.686Z,18.45
2023-08-15T23:30:21.656Z,20.67
2023-08-15T23:34:23.227Z,19.65
2023-08-15T23:38:24.794Z,17.23
2023-08-15T23:42:26.337Z,21.88
2023-08-15T23:46:29.319Z,22.55
2023-08-15T23:50:30.945Z,20.25
2023-08-15T23:54:32.559Z,21.45
2023-08-15T23:58:34.122Z,19.85
